createdAt,value
2019-02-27T00:02:00.456Z,2.45
2019-02-27T00:04:37.245Z,3.42
2019-02-27T00:07:12.985Z,2.70
2019-02-27T00:09:48.850Z,4.03
2019-02-27T00:12:25.692Z,3.40
2019-02-27T00:15:04.904Z,2.92
2019-02-27T00:17:41.570Z,3.47
2019-02-27T00:20:17.689Z,3.22
2019-02-27T00:22:54.203Z,3.10
2019-02-27T00:25:30.455Z,3.17
2019-02-27T00:28:25.761Z,3.15
2019-02-27T00:31:02.990Z,3.35
2019-02-27T00:33:39.736Z,3.72
2019-02-27T00:36:16.575Z,3.62
2019-02-27T00:38:53.223Z,3.35
2019-02-27T00:41:30.748Z,3.25
2019-02-27T00:44:07.148Z,2.62
2019-02-27T00:46:44.000Z,3.17
2019-02-27T00:49:21.973Z,2.65
2019-02-27T00:51:57.921Z,2.87
2019-02-27T00:54:34.393Z,3.30
2019-02-27T00:57:11.085Z,2.85
2019-02-27T00:59:48.161Z,3.05
2019-02-27T01:02:24.437Z,3.05
2019-02-27T01:05:01.410Z,2.83
2019-02-27T01:07:38.100Z,3.02
2019-02-27T01:10:13.868Z,3.12
2019-02-27T01:12:50.337Z,2.80
2019-02-27T01:15:26.666Z,2.67
2019-02-27T01:18:02.709Z,3.25
2019-02-27T01:20:39.152Z,3.20
2019-02-27T01:23:15.669Z,2.52
2019-02-27T01:25:56.122Z,3.05
2019-02-27T01:28:31.115Z,3.08
2019-02-27T01:31:07.112Z,3.22
2019-02-27T01:33:43.293Z,2.92
2019-02-27T01:36:21.803Z,3.17
2019-02-27T01:38:58.572Z,2.55
2019-02-27T01:41:35.324Z,2.87
2019-02-27T01:44:13.658Z,2.92
2019-02-27T01:46:49.823Z,3.08
2019-02-27T01:49:26.403Z,2.85
2019-02-27T01:52:02.748Z,2.67
2019-02-27T01:54:39.233Z,2.95
2019-02-27T01:57:16.489Z,2.83
2019-02-27T01:59:53.402Z,2.67
2019-02-27T02:02:29.624Z,2.77
2019-02-27T02:05:07.053Z,2.83
2019-02-27T02:07:44.907Z,3.05
2019-02-27T02:10:22.038Z,2.55
2019-02-27T02:13:15.122Z,2.52
2019-02-27T02:16:27.105Z,2.70
2019-02-27T02:19:46.072Z,2.87
2019-02-27T02:22:47.856Z,2.67
2019-02-27T02:26:02.358Z,2.70
2019-02-27T02:29:31.996Z,2.52
2019-02-27T02:32:33.530Z,3.08
2019-02-27T02:35:20.573Z,3.08
2019-02-27T02:38:28.444Z,2.50
2019-02-27T02:41:17.547Z,2.90
2019-02-27T02:44:27.989Z,2.60
2019-02-27T02:47:57.402Z,3.10
2019-02-27T02:51:28.723Z,2.83
2019-02-27T02:54:27.712Z,2.90
2019-02-27T02:57:35.831Z,3.22
2019-02-27T03:00:55.046Z,2.72
2019-02-27T03:04:12.962Z,2.90
2019-02-27T03:07:26.957Z,2.90
2019-02-27T03:10:42.531Z,2.67
2019-02-27T03:14:03.301Z,3.58
2019-02-27T03:17:18.005Z,2.85
2019-02-27T03:20:27.136Z,2.77
2019-02-27T03:23:52.082Z,2.80
2019-02-27T03:27:11.633Z,2.70
2019-02-27T03:30:11.600Z,2.52
2019-02-27T03:33:06.125Z,3.08
2019-02-27T03:36:08.685Z,3.27
2019-02-27T03:39:35.937Z,2.67
2019-02-27T03:42:52.949Z,2.67
2019-02-27T03:45:53.242Z,3.00
2019-02-27T03:48:48.699Z,2.85
2019-02-27T03:52:14.953Z,3.05
2019-02-27T03:55:22.245Z,2.80
2019-02-27T03:58:36.681Z,3.27
2019-02-27T04:01:48.064Z,2.80
2019-02-27T04:04:49.927Z,2.80
2019-02-27T04:08:10.043Z,2.90
2019-02-27T04:10:46.487Z,2.80
2019-02-27T04:13:26.415Z,2.80
2019-02-27T04:16:01.716Z,2.50
2019-02-27T04:18:36.698Z,2.98
2019-02-27T04:21:12.697Z,2.90
2019-02-27T04:23:49.549Z,2.65
2019-02-27T04:26:25.939Z,2.62
2019-02-27T04:29:04.415Z,2.70
2019-02-27T04:31:41.744Z,2.70
2019-02-27T04:34:18.585Z,2.55
2019-02-27T04:36:55.060Z,2.70
2019-02-27T04:39:32.152Z,3.12
2019-02-27T04:42:08.033Z,2.50
2019-02-27T04:44:44.082Z,2.60
2019-02-27T04:47:21.361Z,3.12
2019-02-27T04:49:57.914Z,2.77
2019-02-27T04:52:34.389Z,2.70
2019-02-27T04:55:10.237Z,2.80
2019-02-27T04:57:47.154Z,2.35
2019-02-27T05:00:26.101Z,2.87
2019-02-27T05:03:02.124Z,2.62
2019-02-27T05:05:39.102Z,2.85
2019-02-27T05:08:17.293Z,3.00
2019-02-27T05:10:53.420Z,2.90
2019-02-27T05:13:29.742Z,2.62
2019-02-27T05:16:06.326Z,3.20
2019-02-27T05:18:42.916Z,3.00
2019-02-27T05:21:20.463Z,2.67
2019-02-27T05:23:57.069Z,2.67
2019-02-27T05:26:34.029Z,2.70
2019-02-27T05:29:10.496Z,3.08
2019-02-27T05:31:50.126Z,2.85
2019-02-27T05:34:26.496Z,3.12
2019-02-27T05:37:05.281Z,2.70
2019-02-27T05:39:42.206Z,2.62
2019-02-27T05:42:18.858Z,3.08
2019-02-27T05:44:56.777Z,2.52
2019-02-27T05:47:33.134Z,2.40
2019-02-27T05:50:10.690Z,2.60
2019-02-27T05:52:48.802Z,2.85
2019-02-27T05:55:25.052Z,2.90
2019-02-27T05:58:00.769Z,2.62
2019-02-27T06:00:38.353Z,2.65
2019-02-27T06:03:15.872Z,3.67
2019-02-27T06:05:53.227Z,3.42
2019-02-27T06:08:28.967Z,2.52
2019-02-27T06:11:05.444Z,2.67
2019-02-27T06:13:42.094Z,2.77
2019-02-27T06:16:18.332Z,3.20
2019-02-27T06:18:56.356Z,3.95
2019-02-27T06:21:31.813Z,3.35
2019-02-27T06:24:11.681Z,3.45
2019-02-27T06:26:47.881Z,3.52
2019-02-27T06:29:24.173Z,3.52
2019-02-27T06:32:00.804Z,3.60
2019-02-27T06:34:37.965Z,4.15
2019-02-27T06:37:16.051Z,3.70
2019-02-27T06:39:54.207Z,3.67
2019-02-27T06:42:31.119Z,4.10
2019-02-27T06:45:10.216Z,4.25
2019-02-27T06:47:47.279Z,4.10
2019-02-27T06:50:25.456Z,3.30
2019-02-27T06:53:01.812Z,3.67
2019-02-27T06:55:37.752Z,3.77
2019-02-27T06:58:15.429Z,3.72
2019-02-27T07:00:52.572Z,3.33
2019-02-27T07:03:29.465Z,3.45
2019-02-27T07:06:07.177Z,3.52
2019-02-27T07:08:43.925Z,3.72
2019-02-27T07:11:20.012Z,3.12
2019-02-27T07:13:56.085Z,3.50
2019-02-27T07:16:32.921Z,3.62
2019-02-27T07:19:09.661Z,3.75
2019-02-27T07:21:45.451Z,3.60
2019-02-27T07:24:23.552Z,4.92
2019-02-27T07:26:59.504Z,6.53
2019-02-27T07:29:36.014Z,6.30
2019-02-27T07:32:12.764Z,5.20
2019-02-27T07:34:49.745Z,5.17
2019-02-27T07:37:27.265Z,4.90
2019-02-27T07:40:08.035Z,5.05
2019-02-27T07:42:41.671Z,4.62
2019-02-27T07:45:18.232Z,4.40
2019-02-27T07:47:55.151Z,4.20
2019-02-27T07:50:32.560Z,4.47
2019-02-27T07:53:08.672Z,4.78
2019-02-27T07:55:44.709Z,4.80
2019-02-27T07:58:22.220Z,4.08
2019-02-27T08:00:58.822Z,4.30
2019-02-27T08:03:34.925Z,4.30
2019-02-27T08:06:11.227Z,3.80
2019-02-27T08:08:47.016Z,4.30
2019-02-27T08:11:23.427Z,4.00
2019-02-27T08:14:00.738Z,4.33
2019-02-27T08:16:37.553Z,4.37
2019-02-27T08:19:14.020Z,3.95
2019-02-27T08:21:49.779Z,4.20
2019-02-27T08:24:25.902Z,4.30
2019-02-27T08:27:02.567Z,4.05
2019-02-27T08:29:39.819Z,3.40
2019-02-27T08:32:16.259Z,4.00
2019-02-27T08:34:53.540Z,3.83
2019-02-27T08:37:30.008Z,4.05
2019-02-27T08:40:07.381Z,4.20
2019-02-27T08:42:43.518Z,3.60
2019-02-27T08:45:20.728Z,3.77
2019-02-27T08:47:56.783Z,3.30
2019-02-27T08:50:32.789Z,3.58
2019-02-27T08:53:09.386Z,3.58
2019-02-27T08:55:45.990Z,3.70
2019-02-27T08:58:23.069Z,3.80
2019-02-27T09:01:00.310Z,3.77
2019-02-27T09:03:37.033Z,3.55
2019-02-27T09:06:13.068Z,3.80
2019-02-27T09:08:50.414Z,3.87
2019-02-27T09:11:27.049Z,3.22
2019-02-27T09:14:03.356Z,3.80
2019-02-27T09:16:39.846Z,3.58
2019-02-27T09:19:15.679Z,4.08
2019-02-27T09:21:52.147Z,3.83
2019-02-27T09:24:28.341Z,3.20
2019-02-27T09:27:04.881Z,3.70
2019-02-27T09:29:41.270Z,3.83
2019-02-27T09:32:17.592Z,3.20
2019-02-27T09:34:54.117Z,3.98
2019-02-27T09:37:33.369Z,4.35
2019-02-27T09:40:12.300Z,3.92
2019-02-27T09:42:50.288Z,3.95
2019-02-27T09:45:29.379Z,3.58
2019-02-27T09:48:05.888Z,3.58
2019-02-27T09:50:47.787Z,4.00
2019-02-27T09:53:21.945Z,4.08
2019-02-27T09:55:58.006Z,3.08
2019-02-27T09:58:35.076Z,3.42
2019-02-27T10:01:16.870Z,3.80
2019-02-27T10:03:55.264Z,3.20
2019-02-27T10:06:31.206Z,3.45
2019-02-27T10:09:11.427Z,3.47
2019-02-27T10:11:47.865Z,3.70
2019-02-27T10:14:24.256Z,3.40
2019-02-27T10:17:00.480Z,3.55
2019-02-27T10:19:37.501Z,3.37
2019-02-27T10:22:17.683Z,3.37
2019-02-27T10:24:52.404Z,3.65
2019-02-27T10:27:29.387Z,3.45
2019-02-27T10:30:11.522Z,3.02
2019-02-27T10:32:44.395Z,3.58
2019-02-27T10:35:20.828Z,3.75
2019-02-27T10:37:57.294Z,3.10
2019-02-27T10:40:34.730Z,3.55
2019-02-27T10:43:11.512Z,3.37
2019-02-27T10:45:49.378Z,3.30
2019-02-27T10:48:25.360Z,3.37
2019-02-27T10:51:01.270Z,3.35
2019-02-27T10:53:37.141Z,4.10
2019-02-27T10:56:13.551Z,3.30
2019-02-27T10:58:49.596Z,2.77
2019-02-27T11:01:26.364Z,2.87
2019-02-27T11:04:03.188Z,2.83
2019-02-27T11:06:39.823Z,2.70
2019-02-27T11:09:27.905Z,3.40
2019-02-27T11:12:04.119Z,3.27
2019-02-27T11:14:40.613Z,3.05
2019-02-27T11:17:16.285Z,3.52
2019-02-27T11:19:52.919Z,3.22
2019-02-27T11:22:31.775Z,2.52
2019-02-27T11:25:11.089Z,2.72
2019-02-27T11:27:47.856Z,3.20
2019-02-27T11:30:27.543Z,3.65
2019-02-27T11:33:03.904Z,3.05
2019-02-27T11:35:39.954Z,3.62
2019-02-27T11:38:17.922Z,3.25
2019-02-27T11:40:54.489Z,3.35
2019-02-27T11:43:31.672Z,3.08
2019-02-27T11:46:07.509Z,3.30
2019-02-27T11:48:43.839Z,3.40
2019-02-27T11:51:20.735Z,3.25
2019-02-27T11:53:57.256Z,3.30
2019-02-27T11:56:35.161Z,3.10
2019-02-27T11:59:14.043Z,3.20
2019-02-27T12:01:49.854Z,3.00
2019-02-27T12:04:26.518Z,2.98
2019-02-27T12:07:02.371Z,3.10
2019-02-27T12:09:38.733Z,3.22
2019-02-27T12:12:15.192Z,2.85
2019-02-27T12:14:51.373Z,3.17
2019-02-27T12:17:27.111Z,3.35
2019-02-27T12:20:03.315Z,3.05
2019-02-27T12:22:39.441Z,3.15
2019-02-27T12:25:16.520Z,3.15
2019-02-27T12:27:55.087Z,3.00
2019-02-27T12:30:31.861Z,2.90
2019-02-27T12:33:08.040Z,2.83
2019-02-27T12:35:45.235Z,3.80
2019-02-27T12:38:21.502Z,2.90
2019-02-27T12:40:59.093Z,2.95
2019-02-27T12:43:35.981Z,2.92
2019-02-27T12:46:12.895Z,3.20
2019-02-27T12:48:49.158Z,3.20
2019-02-27T12:51:25.896Z,2.85
2019-02-27T12:54:01.859Z,2.50
2019-02-27T12:56:41.624Z,2.77
2019-02-27T12:59:16.957Z,2.60
2019-02-27T13:01:53.568Z,3.40
2019-02-27T13:04:29.405Z,3.20
2019-02-27T13:07:10.395Z,2.98
2019-02-27T13:09:44.366Z,2.52
2019-02-27T13:12:20.085Z,3.12
2019-02-27T13:14:58.949Z,3.02
2019-02-27T13:17:35.260Z,2.90
2019-02-27T13:20:14.082Z,2.80
2019-02-27T13:22:50.156Z,2.70
2019-02-27T13:25:26.784Z,2.95
2019-02-27T13:28:03.870Z,2.77
2019-02-27T13:30:41.621Z,3.00
2019-02-27T13:33:17.988Z,2.92
2019-02-27T13:35:59.329Z,2.58
2019-02-27T13:38:32.448Z,2.20
2019-02-27T13:41:10.581Z,2.52
2019-02-27T13:43:46.754Z,2.87
2019-02-27T13:46:22.923Z,2.45
2019-02-27T13:49:00.073Z,2.60
2019-02-27T13:51:38.398Z,2.52
2019-02-27T13:54:15.832Z,2.70
2019-02-27T13:56:52.160Z,2.77
2019-02-27T13:59:28.941Z,2.87
2019-02-27T14:02:05.004Z,3.08
2019-02-27T14:04:41.624Z,2.47
2019-02-27T14:07:18.633Z,2.50
2019-02-27T14:09:55.759Z,2.87
2019-02-27T14:12:33.171Z,2.65
2019-02-27T14:15:11.844Z,2.60
2019-02-27T14:17:47.960Z,2.72
2019-02-27T14:20:26.957Z,3.00
2019-02-27T14:23:02.913Z,3.42
2019-02-27T14:25:39.271Z,2.77
2019-02-27T14:28:18.329Z,2.90
2019-02-27T14:30:54.341Z,3.08
2019-02-27T14:33:31.237Z,3.00
2019-02-27T14:36:08.492Z,2.77
2019-02-27T14:38:49.932Z,2.75
2019-02-27T14:41:26.385Z,3.62
2019-02-27T14:44:03.552Z,3.27
2019-02-27T14:46:41.930Z,3.37
2019-02-27T14:49:19.108Z,3.40
2019-02-27T14:51:55.300Z,3.15
2019-02-27T14:54:32.175Z,3.70
2019-02-27T14:57:08.312Z,3.70
2019-02-27T14:59:45.528Z,3.85
2019-02-27T15:02:22.432Z,3.30
2019-02-27T15:04:59.740Z,3.08
2019-02-27T15:07:35.841Z,3.17
2019-02-27T15:10:12.744Z,3.08
2019-02-27T15:12:53.858Z,3.08
2019-02-27T15:15:29.129Z,3.17
2019-02-27T15:18:05.666Z,3.80
2019-02-27T15:20:41.954Z,3.62
2019-02-27T15:23:18.691Z,3.10
2019-02-27T15:25:55.242Z,3.35
2019-02-27T15:28:33.250Z,3.20
2019-02-27T15:31:10.309Z,3.15
2019-02-27T15:33:46.765Z,2.75
2019-02-27T15:36:22.472Z,3.15
2019-02-27T15:38:59.377Z,3.27
2019-02-27T15:41:36.055Z,3.00
2019-02-27T15:44:13.752Z,3.45
2019-02-27T15:46:50.220Z,3.22
2019-02-27T15:49:25.924Z,3.12
2019-02-27T15:52:06.548Z,3.15
2019-02-27T15:54:40.045Z,3.25
2019-02-27T15:57:17.712Z,3.20
2019-02-27T15:59:54.463Z,3.02
2019-02-27T16:02:30.807Z,3.15
2019-02-27T16:05:09.069Z,3.27
2019-02-27T16:07:48.733Z,4.00
2019-02-27T16:10:23.576Z,3.55
2019-02-27T16:13:01.318Z,3.45
2019-02-27T16:15:38.161Z,3.12
2019-02-27T16:18:14.008Z,3.75
2019-02-27T16:20:51.870Z,3.58
2019-02-27T16:23:28.386Z,3.45
2019-02-27T16:26:04.742Z,3.08
2019-02-27T16:28:40.918Z,3.00
2019-02-27T16:31:17.034Z,2.95
2019-02-27T16:33:55.518Z,3.27
2019-02-27T16:36:36.270Z,3.50
2019-02-27T16:39:10.328Z,3.50
2019-02-27T16:41:47.441Z,2.98
2019-02-27T16:44:23.321Z,3.17
2019-02-27T16:47:00.479Z,3.67
2019-02-27T16:49:36.851Z,3.40
2019-02-27T16:52:13.948Z,3.17
2019-02-27T16:54:50.740Z,3.15
2019-02-27T16:57:26.662Z,3.05
2019-02-27T17:00:03.361Z,3.92
2019-02-27T17:02:39.201Z,4.22
2019-02-27T17:05:15.544Z,3.37
2019-02-27T17:07:51.595Z,3.60
2019-02-27T17:10:29.730Z,3.95
2019-02-27T17:13:06.153Z,3.50
2019-02-27T17:15:42.466Z,3.33
2019-02-27T17:18:19.456Z,4.03
2019-02-27T17:20:56.098Z,4.00
2019-02-27T17:23:33.763Z,3.62
2019-02-27T17:26:09.598Z,4.03
2019-02-27T17:28:48.683Z,5.00
2019-02-27T17:31:25.797Z,3.35
2019-02-27T17:34:02.490Z,4.00
2019-02-27T17:36:38.844Z,3.83
2019-02-27T17:39:15.289Z,4.35
2019-02-27T17:41:52.224Z,4.40
2019-02-27T17:44:28.642Z,4.37
2019-02-27T17:47:04.474Z,4.55
2019-02-27T17:49:40.382Z,4.30
2019-02-27T17:52:17.162Z,3.95
2019-02-27T17:54:53.246Z,3.33
2019-02-27T17:57:29.518Z,4.10
2019-02-27T18:00:07.826Z,4.78
2019-02-27T18:02:44.241Z,4.40
2019-02-27T18:05:22.385Z,4.50
2019-02-27T18:07:59.432Z,4.85
2019-02-27T18:10:37.624Z,3.67
2019-02-27T18:13:13.937Z,4.55
2019-02-27T18:15:53.277Z,4.40
2019-02-27T18:18:28.518Z,3.90
2019-02-27T18:21:04.413Z,3.83
2019-02-27T18:23:41.408Z,3.80
2019-02-27T18:26:18.680Z,4.22
2019-02-27T18:28:54.561Z,4.62
2019-02-27T18:31:31.718Z,4.70
2019-02-27T18:34:07.935Z,9.33
2019-02-27T18:36:46.477Z,8.95
2019-02-27T18:39:22.232Z,8.85
2019-02-27T18:41:58.536Z,7.58
2019-02-27T18:44:35.056Z,7.80
2019-02-27T18:47:10.908Z,8.68
2019-02-27T18:49:49.096Z,8.10
2019-02-27T18:52:25.309Z,7.70
2019-02-27T18:55:01.607Z,7.87
2019-02-27T18:57:39.040Z,6.05
2019-02-27T19:00:19.281Z,6.15
2019-02-27T19:02:56.221Z,6.37
2019-02-27T19:05:32.677Z,6.35
2019-02-27T19:08:08.834Z,6.30
2019-02-27T19:10:44.769Z,6.60
2019-02-27T19:13:21.502Z,6.22
2019-02-27T19:15:57.976Z,5.60
2019-02-27T19:18:34.802Z,4.92
2019-02-27T19:21:11.321Z,5.83
2019-02-27T19:23:49.513Z,5.72
2019-02-27T19:26:26.207Z,5.25
2019-02-27T19:29:02.704Z,5.78
2019-02-27T19:31:39.921Z,5.08
2019-02-27T19:34:17.120Z,4.70
2019-02-27T19:36:53.520Z,5.03
2019-02-27T19:39:30.620Z,5.22
2019-02-27T19:42:06.869Z,5.33
2019-02-27T19:44:43.074Z,5.35
2019-02-27T19:47:19.387Z,5.30
2019-02-27T19:49:55.434Z,4.65
2019-02-27T19:52:31.345Z,4.78
2019-02-27T19:55:07.410Z,5.00
2019-02-27T19:57:44.016Z,4.65
2019-02-27T20:00:22.078Z,5.00
2019-02-27T20:03:01.516Z,4.97
2019-02-27T20:05:38.160Z,4.75
2019-02-27T20:08:14.186Z,5.33
2019-02-27T20:10:50.792Z,5.00
2019-02-27T20:13:28.118Z,4.58
2019-02-27T20:16:05.323Z,5.03
2019-02-27T20:18:43.603Z,5.30
2019-02-27T20:21:19.371Z,5.15
2019-02-27T20:24:01.036Z,5.60
2019-02-27T20:26:34.156Z,4.42
2019-02-27T20:29:10.209Z,4.87
2019-02-27T20:31:46.773Z,5.33
2019-02-27T20:34:22.684Z,4.87
2019-02-27T20:36:59.192Z,4.65
2019-02-27T20:39:36.157Z,4.97
2019-02-27T20:42:14.373Z,4.65
2019-02-27T20:44:52.654Z,4.85
2019-02-27T20:47:29.930Z,4.60
2019-02-27T20:50:08.960Z,5.40
2019-02-27T20:52:46.437Z,4.97
2019-02-27T20:55:23.520Z,5.28
2019-02-27T20:57:59.711Z,5.12
2019-02-27T21:00:37.306Z,5.33
2019-02-27T21:06:13.099Z,5.40
2019-02-27T21:08:50.543Z,5.83
2019-02-27T21:11:29.559Z,5.15
2019-02-27T21:14:04.450Z,4.92
2019-02-27T21:16:43.696Z,4.90
2019-02-27T21:19:19.646Z,4.80
2019-02-27T21:21:56.036Z,5.00
2019-02-27T21:24:31.808Z,5.35
2019-02-27T21:27:09.210Z,5.15
2019-02-27T21:29:45.326Z,4.65
2019-02-27T21:32:21.798Z,5.22
2019-02-27T21:34:58.014Z,4.72
2019-02-27T21:37:34.133Z,4.75
2019-02-27T21:40:12.708Z,4.85
2019-02-27T21:42:51.223Z,4.78
2019-02-27T21:45:29.529Z,4.65
2019-02-27T21:48:05.878Z,5.10
2019-02-27T21:50:42.990Z,5.08
2019-02-27T21:53:19.555Z,5.20
2019-02-27T21:55:56.137Z,5.42
2019-02-27T21:58:33.108Z,4.75
2019-02-27T22:01:09.943Z,5.42
2019-02-27T22:03:46.714Z,4.40
2019-02-27T22:06:24.692Z,4.97
2019-02-27T22:09:01.577Z,5.00
2019-02-27T22:11:38.074Z,5.05
2019-02-27T22:14:16.713Z,4.83
2019-02-27T22:16:52.090Z,5.10
2019-02-27T22:19:29.237Z,4.97
2019-02-27T22:22:08.019Z,4.75
2019-02-27T22:24:43.717Z,5.05
2019-02-27T22:27:20.122Z,5.33
2019-02-27T22:29:59.717Z,4.65
2019-02-27T22:32:35.310Z,5.35
2019-02-27T22:35:11.077Z,4.90
2019-02-27T22:37:51.293Z,5.20
2019-02-27T22:40:25.783Z,6.12
2019-02-27T22:43:02.123Z,4.83
2019-02-27T22:45:41.962Z,5.55
2019-02-27T22:48:16.593Z,5.17
2019-02-27T22:50:53.801Z,4.42
2019-02-27T22:53:29.721Z,5.10
2019-02-27T22:56:06.614Z,4.83
2019-02-27T22:58:43.529Z,4.85
2019-02-27T23:01:31.624Z,5.20
2019-02-27T23:04:10.640Z,5.03
2019-02-27T23:06:47.945Z,4.92
2019-02-27T23:09:25.623Z,5.15
2019-02-27T23:12:02.999Z,4.55
2019-02-27T23:14:39.146Z,4.85
2019-02-27T23:17:15.693Z,4.80
2019-02-27T23:19:51.873Z,4.83
2019-02-27T23:22:39.386Z,4.85
2019-02-27T23:25:16.249Z,4.87
2019-02-27T23:27:52.578Z,4.75
2019-02-27T23:30:28.665Z,5.15
2019-02-27T23:33:04.687Z,4.87
2019-02-27T23:35:41.190Z,4.55
2019-02-27T23:38:17.931Z,4.50
2019-02-27T23:40:54.085Z,4.78
2019-02-27T23:43:34.020Z,5.03
2019-02-27T23:46:08.525Z,4.72
2019-02-27T23:48:44.877Z,4.92
2019-02-27T23:51:21.501Z,4.58
2019-02-27T23:53:58.576Z,4.00
2019-02-27T23:56:36.372Z,4.15
2019-02-27T23:59:13.172Z,4.45
